Catheys Valley, California
Current Conditions -  °F | °C
As of 7:53 PM on Tuesday 25 Nov 2014 (Local Time) from KMCE Reporting Station
Haze Haze  
Wind Chill: 51°   Ceiling: Unl
Heat Index: 51°   Visibility: 5mi
Dew Point: 44°   Wind: 0mph
Humidity: 77%   Direction: NA
Pressure: 30.38"   Gusts: NA
Location:  37.41°N, 120.1°W
Report Text: KMCE 260353Z AUTO 00000KT 5SM HZ CLR 11/07 A3038 RMK AO2 SLP287 T01060067
Loading
Personal Weather Stations






























Interactive Weather Map New forecast layout! Learn more

10-Day Weather Forecast

Advertisements
Track Severe Weather on mobile